Big Bear Station Historical Data
Daily Summary for March 23, 2019 Units:  English    Metric   Both
Next Day »
Daily Weekly Monthly Yearly Custom
  High: Low: Average:
Temperature: 48.6 °F 29.5 °F 37.5 °F
Dew Point: 35.8 °F 10.7 °F 25.8 °F
Humidity: 96% 28% 66%
Wind Speed: 7.8mph 0.0mph 2mph
Wind Gust: -999.0mph - -
Wind- - West
Pressure: 23.53 in 23.48 in -
Precipitation: 0.00 in    
Historical Graphs
 
 
Tabular Data for March 23, 2019
Time Temperature Dew Point Pressure Wind Wind Speed Wind Gust Humidity Rainfall Rate (Hourly)
00:05 34.9 °F 29.7 °F 23.53 in Calm   -999.0 mph 81% 0.00 in
00:20 34.7 °F 29.8 °F 23.53 in Calm   -999.0 mph 82% 0.00 in
00:35 34.5 °F 27.7 °F 23.53 in Calm   -999.0 mph 76% 0.00 in
00:50 34.9 °F 25.4 °F 23.53 in South 1.7 mph -999.0 mph 68% 0.00 in
01:06 34.5 °F 25.7 °F 23.52 in Calm   -999.0 mph 70% 0.00 in
01:21 33.8 °F 25.4 °F 23.52 in Calm   -999.0 mph 71% 0.00 in
01:36 34.3 °F 25.2 °F 23.52 in Calm   -999.0 mph 69% 0.00 in
01:51 34.5 °F 26.1 °F 23.52 in Calm   -999.0 mph 71% 0.00 in
02:06 34.0 °F 26.6 °F 23.52 in Calm   -999.0 mph 74% 0.00 in
02:22 34.2 °F 27.7 °F 23.52 in SSW 2.7 mph -999.0 mph 77% 0.00 in
02:37 33.8 °F 27.7 °F 23.52 in Calm   -999.0 mph 78% 0.00 in
02:52 33.3 °F 27.8 °F 23.52 in Calm   -999.0 mph 80% 0.00 in
03:07 33.1 °F 27.9 °F 23.52 in Calm   -999.0 mph 81% 0.00 in
03:23 33.3 °F 28.1 °F 23.51 in Calm   -999.0 mph 81% 0.00 in
03:38 33.6 °F 28.1 °F 23.51 in West 2.2 mph -999.0 mph 80% 0.00 in
03:53 33.8 °F 27.4 °F 23.51 in Calm   -999.0 mph 77% 0.00 in
04:08 34.2 °F 25.8 °F 23.50 in Calm   -999.0 mph 71% 0.00 in
04:23 34.2 °F 25.4 °F 23.50 in Calm   -999.0 mph 70% 0.00 in
04:39 33.8 °F 24.7 °F 23.50 in Calm   -999.0 mph 69% 0.00 in
04:54 33.8 °F 22.9 °F 23.50 in Calm   -999.0 mph 64% 0.00 in
05:09 34.2 °F 22.9 °F 23.50 in Calm   -999.0 mph 63% 0.00 in
05:24 33.8 °F 24.0 °F 23.50 in Calm   -999.0 mph 67% 0.00 in
05:39 31.8 °F 24.1 °F 23.51 in Calm   -999.0 mph 73% 0.00 in
05:55 31.5 °F 23.8 °F 23.51 in Calm   -999.0 mph 73% 0.00 in
06:10 30.9 °F 23.9 °F 23.50 in Calm   -999.0 mph 75% 0.00 in
06:25 30.4 °F 24.1 °F 23.51 in Calm   -999.0 mph 77% 0.00 in
06:40 29.7 °F 22.4 °F 23.50 in Calm   -999.0 mph 74% 0.00 in
06:55 29.5 °F 20.2 °F 23.50 in Calm   -999.0 mph 68% 0.00 in
07:11 32.2 °F 18.7 °F 23.50 in Calm   -999.0 mph 57% 0.00 in
07:26 31.3 °F 15.7 °F 23.50 in Calm   -999.0 mph 52% 0.00 in
07:41 31.8 °F 13.8 °F 23.51 in Calm   -999.0 mph 47% 0.00 in
07:56 32.5 °F 15.4 °F 23.51 in Calm   -999.0 mph 49% 0.00 in
08:11 33.4 °F 17.7 °F 23.51 in Calm   -999.0 mph 52% 0.00 in
08:27 36.0 °F 16.7 °F 23.51 in Calm   -999.0 mph 45% 0.00 in
08:42 37.8 °F 11.2 °F 23.50 in Calm   -999.0 mph 33% 0.00 in
08:57 38.8 °F 12.1 °F 23.50 in Calm   -999.0 mph 33% 0.00 in
09:13 40.1 °F 11.9 °F 23.50 in NW 2.7 mph -999.0 mph 31% 0.00 in
09:28 41.4 °F 10.7 °F 23.51 in SSW 3.2 mph -999.0 mph 28% 0.00 in
09:43 41.7 °F 11.7 °F 23.51 in WNW 4.7 mph -999.0 mph 29% 0.00 in
09:59 42.1 °F 13.6 °F 23.51 in NW 6.3 mph -999.0 mph 31% 0.00 in
10:14 42.6 °F 11.7 °F 23.51 in NNW 3.7 mph -999.0 mph 28% 0.00 in
10:29 43.3 °F 12.3 °F 23.52 in WSW 2.7 mph -999.0 mph 28% 0.00 in
10:45 43.9 °F 13.7 °F 23.52 in NW 3.7 mph -999.0 mph 29% 0.00 in
11:00 44.6 °F 16.5 °F 23.52 in Calm   -999.0 mph 32% 0.00 in
11:15 45.3 °F 18.6 °F 23.52 in NW 6.3 mph -999.0 mph 34% 0.00 in
11:30 45.9 °F 21.7 °F 23.52 in WNW 3.7 mph -999.0 mph 38% 0.00 in
11:46 46.8 °F 25.5 °F 23.52 in NW 4.7 mph -999.0 mph 43% 0.00 in
12:01 47.5 °F 25.5 °F 23.52 in North 1.1 mph -999.0 mph 42% 0.00 in
12:17 47.3 °F 27.6 °F 23.51 in NNW 4.2 mph -999.0 mph 46% 0.00 in
12:32 48.4 °F 30.1 °F 23.51 in WNW 5.3 mph -999.0 mph 49% 0.00 in
12:47 48.6 °F 30.3 °F 23.51 in North 6.8 mph -999.0 mph 49% 0.00 in
13:02 48.0 °F 26.0 °F 23.51 in WSW 2.7 mph -999.0 mph 42% 0.00 in
13:18 47.7 °F 26.8 °F 23.51 in West 4.7 mph -999.0 mph 44% 0.00 in
13:33 48.4 °F 26.9 °F 23.51 in NNE 2.7 mph -999.0 mph 43% 0.00 in
13:48 46.8 °F 25.5 °F 23.50 in NE 2.2 mph -999.0 mph 43% 0.00 in
14:03 47.3 °F 25.9 °F 23.51 in SE 4.2 mph -999.0 mph 43% 0.00 in
14:18 46.0 °F 25.8 °F 23.50 in WNW 3.7 mph -999.0 mph 45% 0.00 in
14:34 46.2 °F 27.6 °F 23.50 in North 5.8 mph -999.0 mph 48% 0.00 in
14:49 45.5 °F 27.4 °F 23.49 in NW 4.7 mph -999.0 mph 49% 0.00 in
15:04 45.9 °F 28.3 °F 23.49 in SW 1.1 mph -999.0 mph 50% 0.00 in
15:19 45.7 °F 28.1 °F 23.49 in NW 2.2 mph -999.0 mph 50% 0.00 in
15:34 45.3 °F 30.5 °F 23.49 in NNE 6.8 mph -999.0 mph 56% 0.00 in
15:50 45.1 °F 31.2 °F 23.49 in NW 5.8 mph -999.0 mph 58% 0.00 in
16:05 44.1 °F 30.7 °F 23.49 in NW 7.8 mph -999.0 mph 59% 0.00 in
16:20 43.3 °F 33.8 °F 23.49 in WNW 4.7 mph -999.0 mph 69% 0.00 in
16:36 42.6 °F 34.6 °F 23.48 in WNW 4.2 mph -999.0 mph 73% 0.00 in
16:51 42.3 °F 34.9 °F 23.48 in NW 4.7 mph -999.0 mph 75% 0.00 in
17:06 42.8 °F 34.7 °F 23.48 in NW 5.8 mph -999.0 mph 73% 0.00 in
17:21 42.8 °F 35.4 °F 23.48 in NNW 2.7 mph -999.0 mph 75% 0.00 in
17:37 41.5 °F 35.8 °F 23.48 in WNW 4.7 mph -999.0 mph 80% 0.00 in
17:52 39.9 °F 35.2 °F 23.48 in NW 4.7 mph -999.0 mph 83% 0.00 in
18:08 38.8 °F 34.1 °F 23.48 in WNW 3.2 mph -999.0 mph 83% 0.00 in
18:23 37.6 °F 33.5 °F 23.48 in Calm   -999.0 mph 85% 0.00 in
18:38 36.3 °F 32.5 °F 23.48 in WNW 3.2 mph -999.0 mph 86% 0.00 in
18:54 35.2 °F 32.0 °F 23.48 in WNW 4.7 mph -999.0 mph 88% 0.00 in
19:09 34.2 °F 31.6 °F 23.48 in NW 2.2 mph -999.0 mph 90% 0.00 in
19:24 33.6 °F 31.0 °F 23.48 in East 1.1 mph -999.0 mph 90% 0.00 in
19:40 33.1 °F 30.5 °F 23.49 in WNW 2.7 mph -999.0 mph 90% 0.00 in
19:55 32.7 °F 30.1 °F 23.49 in Calm   -999.0 mph 90% 0.00 in
20:13 32.4 °F 29.8 °F 23.49 in Calm   -999.0 mph 90% 0.00 in
20:29 32.4 °F 30.1 °F 23.49 in NNW 2.2 mph -999.0 mph 91% 0.00 in
20:44 32.4 °F 29.8 °F 23.50 in ENE 3.7 mph -999.0 mph 90% 0.00 in
20:59 32.5 °F 29.9 °F 23.50 in Calm   -999.0 mph 90% 0.00 in
21:14 32.2 °F 29.6 °F 23.50 in Calm   -999.0 mph 90% 0.00 in
21:31 31.6 °F 29.0 °F 23.50 in Calm   -999.0 mph 90% 0.00 in
21:46 31.6 °F 29.3 °F 23.50 in WSW 2.7 mph -999.0 mph 91% 0.00 in
22:02 31.5 °F 29.4 °F 23.49 in Calm   -999.0 mph 92% 0.00 in
22:17 31.3 °F 29.2 °F 23.49 in SE 2.2 mph -999.0 mph 92% 0.00 in
22:32 31.5 °F 29.4 °F 23.49 in SSW 2.7 mph -999.0 mph 92% 0.00 in
22:47 31.3 °F 29.0 °F 23.48 in ENE 2.7 mph -999.0 mph 91% 0.00 in
23:02 31.3 °F 29.8 °F 23.48 in NW 3.7 mph -999.0 mph 94% 0.00 in
23:18 31.1 °F 29.8 °F 23.49 in NW 3.2 mph -999.0 mph 95% 0.00 in
23:33 31.1 °F 30.1 °F 23.49 in Calm   -999.0 mph 96% 0.00 in
23:48 29.8 °F 28.3 °F 23.49 in Calm   -999.0 mph 94% 0.00 in
Big Bear CA Weather